Denver, CO

8:26 AM MDT on August 28, 2015 (GMT -0600)
Geography and Env. Sciences, CU Denver | | Change Station
CLOSE
Current Station
Personal Weather Station
Location: Denver, CO
Elevation: 5225 ft
Nearby Weather Stations

Elev 5225 ft 39.75 °N, 105.00 °W | Updated 1 minute ago

Partly Cloudy
Partly Cloudy
72.2 °F
Feels Like 77 °F
N
0.0
Wind Variable Wind from SSW
Gusts 13.0 mph

Today
High -- | Low -- °F
--% Chance of Precip.
Yesterday
High -- | Low -- °F
Precip. -- in
6:24 AM 7:37 PM
Waxing Gibbous, 98% visible
Pressure 30.10 in
Visibility 10.0 miles
Clouds Few 11000 ft
Few 20000 ft
Heat Index 77 °F
Dew Point 52 °F
Humidity 49%
Rainfall 0.00 in
Snow Depth Not available.
UV 0.0 out of 12
Pollen 10.10 out of 12
Air Quality Not available.
Flu Activity Not available.
METAR KAPA 281353Z 23005KT 10SM FEW110 FEW200 17/11 A3026 RMK AO2 SLP191 T01720111
Pressure 30.10 in
Visibility 10.0 miles
Clouds Few 11000 ft
Few 20000 ft
Heat Index 77 °F
Dew Point 52 °F
Humidity 49%
Rainfall 0.00 in
Snow Depth Not available.
UV 0.0 out of 12
Pollen 10.10 out of 12
Air Quality Not available.
Flu Activity Not available.
METAR KAPA 281353Z 23005KT 10SM FEW110 FEW200 17/11 A3026 RMK AO2 SLP191 T01720111

10-Day Weather Forecast

×

Almanac

Astronomy

Aug. 28, 2015 Rise Set
Actual Time
Civil Twilight
Nautical Twilight
Astronomical Twilight
Moon
Length of Visible Light
Length of Day
Tomorrow will be .
, % of the Moon is Illuminated

Today's Extremes

State Highs State Lows

Community

WunderPhotos

Upload Photos

1,850,381 photos uploaded!

WunderBlogs® & News

Nearby

Air Quality

  Air Quality AQ Index Pollutant
Not available.

Snow Depth

Station Depth Elevation

Earthquake Activity

City Distance Mag. Time & Date
Minimum magnitude displayed is 2.5.

Coastal Water Temperatures

Place Temperature

Stations

Nearby Weather Stations

Station Location Temp. Windchill Dew Point Humidity Wind Precip. Elev Updated Type